Terminal Aerodrome Forecast
Issued by NWS Jacksonville, FL

Home | Current Version | Previous Version | Text Only | Print | Product List | Glossary On
Versions: 1 2 3 4 5 6 7 8 9 10 11 12 13 14 15
000
FTUS42 KJAX 012300
TAFSSI
TAF
KSSI 012329Z 0200/0224 16007KT P6SM SKC
     FM020800 VRB02KT P6SM SKC
     FM021500 16006KT P6SM VCTS SCT030CB SCT250
     FM021900 12009KT P6SM FEW040 BKN250=

USA.gov is the U.S. government's official web portal to all federal, state and local government web resources and services.